Time;durP1;ratioP1;P1;durP2;ratioP2;P2;SDS_P1;SDS_P2;PMS_P1;PMS_P2;Temp;Humidity;BMP_temperature;BMP_pressure;BME280_temperature;BME280_humidity;BME280_pressure;Samples;Min_cycle;Max_cycle;Signal;HPM_P1;HPM_P2
2022/12/04 00:01:33;;;;;;;2.70;1.52;;;;;;;6.70;44.40;100916.91;5025986;28;20045;-75
2022/12/04 00:04:02;;;;;;;5.22;2.08;;;;;;;6.65;45.12;100908.13;5018596;28;20080;-75
2022/12/04 00:06:32;;;;;;;4.88;1.55;;;;;;;6.58;45.08;100906.94;5021369;28;20041;-74
2022/12/04 00:09:01;;;;;;;3.45;1.38;;;;;;;6.50;44.55;100892.81;5019587;28;20801;-73
2022/12/04 00:11:31;;;;;;;3.75;1.55;;;;;;;6.44;45.43;100900.25;5020498;28;20058;-75
2022/12/04 00:14:02;;;;;;;3.08;1.50;;;;;;;6.35;44.93;100900.69;5017726;28;20470;-75
2022/12/04 00:16:31;;;;;;;5.95;1.75;;;;;;;6.31;45.56;100900.47;5020741;28;20499;-76
2022/12/04 00:19:00;;;;;;;9.75;2.05;;;;;;;6.27;45.95;100897.72;5019645;28;20136;-77
2022/12/04 00:21:29;;;;;;;5.55;2.28;;;;;;;6.21;44.89;100887.16;5026026;28;20045;-77
2022/12/04 00:23:57;;;;;;;6.70;2.70;;;;;;;6.17;45.51;100889.50;5021288;28;20049;-74
2022/12/04 00:26:29;;;;;;;3.20;1.35;;;;;;;6.09;45.78;100896.81;5019354;28;20056;-75
2022/12/04 00:29:00;;;;;;;2.63;1.45;;;;;;;6.05;45.65;100895.81;5015905;28;20085;-77
2022/12/04 00:31:30;;;;;;;3.83;1.58;;;;;;;5.99;45.89;100900.63;5023897;28;20608;-74
2022/12/04 00:34:00;;;;;;;3.00;1.77;;;;;;;5.94;46.21;100896.94;5022307;28;20060;-73
2022/12/04 00:36:30;;;;;;;3.50;1.50;;;;;;;5.89;45.91;100890.66;5016536;28;20042;-73
2022/12/04 00:39:01;;;;;;;1.67;1.02;;;;;;;5.83;45.63;100887.78;5022046;28;20049;-75
2022/12/04 00:41:31;;;;;;;1.40;1.05;;;;;;;5.77;45.34;100887.47;5024778;28;20048;-73
2022/12/04 00:44:03;;;;;;;2.25;1.13;;;;;;;5.72;46.39;100888.91;5023142;28;20057;-73
2022/12/04 00:46:32;;;;;;;4.30;1.63;;;;;;;5.66;46.68;100899.78;5023516;28;20107;-71
2022/12/04 00:49:01;;;;;;;5.88;1.40;;;;;;;5.60;46.62;100892.63;5023394;28;20961;-74
2022/12/04 00:51:30;;;;;;;2.50;1.23;;;;;;;5.57;46.50;100894.16;5025118;28;20053;-74
2022/12/04 00:53:59;;;;;;;3.78;1.45;;;;;;;5.50;46.71;100892.97;5013393;28;20060;-77
2022/12/04 00:56:36;;;;;;;3.30;1.30;;;;;;;5.54;46.46;100894.84;5003145;28;20057;-76
2022/12/04 00:59:06;;;;;;;2.60;1.30;;;;;;;5.51;46.67;100887.00;5001471;28;20057;-76
2022/12/04 01:01:35;;;;;;;3.35;1.08;;;;;;;5.45;46.25;100894.38;5002328;28;20053;-79
2022/12/04 01:04:04;;;;;;;3.22;1.27;;;;;;;5.40;46.59;100885.56;4997996;28;20136;-74
2022/12/04 01:06:35;;;;;;;2.13;1.27;;;;;;;5.35;47.22;100869.94;5001104;28;20057;-79
2022/12/04 01:09:06;;;;;;;1.85;1.15;;;;;;;5.31;47.02;100873.13;5002240;28;20077;-76
2022/12/04 01:11:35;;;;;;;1.70;0.95;;;;;;;5.27;47.34;100872.88;5001214;28;20054;-75
2022/12/04 01:14:05;;;;;;;4.72;1.55;;;;;;;5.23;47.05;100871.88;5007977;28;20049;-76
2022/12/04 01:16:36;;;;;;;1.48;1.20;;;;;;;5.17;46.81;100877.53;5007959;28;20038;-77
2022/12/04 01:19:06;;;;;;;2.55;1.00;;;;;;;5.10;47.32;100878.00;5002805;28;20053;-77
2022/12/04 01:21:35;;;;;;;3.08;1.15;;;;;;;5.09;47.62;100873.69;4997476;28;20049;-77
2022/12/04 01:24:04;;;;;;;2.95;1.38;;;;;;;5.04;47.47;100882.84;5008647;28;20049;-78
2022/12/04 01:26:33;;;;;;;2.38;1.27;;;;;;;5.03;47.19;100883.63;5008165;28;20448;-78
2022/12/04 01:29:02;;;;;;;2.25;1.50;;;;;;;4.99;47.21;100876.56;5006725;28;20161;-77
2022/12/04 01:31:33;;;;;;;5.88;1.50;;;;;;;4.98;48.00;100877.38;5007475;28;20076;-81
2022/12/04 01:34:02;;;;;;;5.55;1.55;;;;;;;4.93;46.89;100889.06;5005454;28;20185;-77
2022/12/04 01:36:30;;;;;;;2.53;1.15;;;;;;;4.93;47.55;100883.94;5007018;28;20053;-76
2022/12/04 01:38:59;;;;;;;4.38;1.73;;;;;;;4.93;47.25;100886.50;5004517;28;20509;-76
2022/12/04 01:41:30;;;;;;;12.05;2.28;;;;;;;4.90;47.01;100878.63;5005258;28;20049;-80
2022/12/04 01:44:13;;;;;;;2.70;1.30;;;;;;;4.90;47.46;100883.75;5006784;28;20096;-76
2022/12/04 01:46:45;;;;;;;4.28;1.60;;;;;;;4.88;47.66;100881.13;5008949;28;20068;-78
2022/12/04 01:49:19;;;;;;;8.87;2.13;;;;;;;4.87;48.01;100879.34;5006515;28;20060;-76
2022/12/04 01:51:50;;;;;;;4.03;1.30;;;;;;;4.86;47.43;100869.03;5006975;28;20057;-75
2022/12/04 01:54:27;;;;;;;4.78;1.45;;;;;;;4.81;47.97;100867.09;5007046;28;20050;-77
2022/12/04 01:57:00;;;;;;;2.70;1.23;;;;;;;4.81;46.87;100872.22;4997905;28;20054;-75
2022/12/04 01:59:34;;;;;;;4.68;1.88;;;;;;;4.78;47.45;100866.91;4995137;28;20548;-76
2022/12/04 02:02:06;;;;;;;3.83;1.73;;;;;;;4.79;48.55;100862.69;5006575;28;20052;-75
2022/12/04 02:04:35;;;;;;;2.75;1.63;;;;;;;4.76;47.80;100870.19;4999348;28;20484;-75
2022/12/04 02:07:05;;;;;;;2.47;1.33;;;;;;;4.74;47.77;100884.59;5002366;28;20546;-76
2022/12/04 02:09:35;;;;;;;3.10;1.65;;;;;;;4.73;47.91;100885.41;5003146;28;20049;-76
2022/12/04 02:12:13;;;;;;;2.35;1.25;;;;;;;4.72;48.60;100887.09;5002455;28;20515;-74
2022/12/04 02:14:48;;;;;;;4.15;1.52;;;;;;;4.68;47.62;100897.97;5006079;28;20945;-75
2022/12/04 02:17:26;;;;;;;3.13;1.27;;;;;;;4.67;47.54;100883.38;5003890;28;20141;-73
2022/12/04 02:20:22;;;;;;;2.17;1.30;;;;;;;4.63;48.45;100881.47;5003974;28;20056;-75
2022/12/04 02:23:34;;;;;;;3.25;1.42;;;;;;;4.62;48.89;100895.06;5004187;28;20041;-78
2022/12/04 02:26:19;;;;;;;0.90;0.77;;;;;;;4.59;48.56;100894.91;5003025;28;20539;-76
2022/12/04 02:28:55;;;;;;;3.83;1.10;;;;;;;4.55;48.15;100885.28;5003800;28;20613;-76
2022/12/04 02:31:29;;;;;;;3.22;1.02;;;;;;;4.58;48.14;100898.25;4998234;28;20052;-74
2022/12/04 02:34:03;;;;;;;2.75;1.25;;;;;;;4.58;48.48;100899.16;4994883;28;20049;-75
2022/12/04 02:36:36;;;;;;;1.65;1.02;;;;;;;4.60;48.46;100901.78;4998757;28;20077;-73
2022/12/04 02:39:08;;;;;;;2.70;1.23;;;;;;;4.60;48.25;100901.78;5003118;28;20054;-73
2022/12/04 02:41:42;;;;;;;4.80;1.33;;;;;;;4.56;47.88;100897.31;5001995;28;20042;-72
2022/12/04 02:44:18;;;;;;;1.88;1.40;;;;;;;4.60;48.11;100904.34;5008511;28;20058;-75
2022/12/04 02:46:51;;;;;;;2.67;0.90;;;;;;;4.57;47.98;100896.50;5007504;28;20054;-74
2022/12/04 02:49:26;;;;;;;4.53;1.88;;;;;;;4.57;47.96;100889.69;5004588;28;20147;-74
2022/12/04 02:51:59;;;;;;;2.15;1.42;;;;;;;4.57;48.32;100896.50;5007598;28;20822;-75
2022/12/04 02:54:33;;;;;;;1.73;1.17;;;;;;;4.57;48.08;100881.13;5007326;28;20116;-74
2022/12/04 02:57:03;;;;;;;3.15;1.10;;;;;;;4.57;49.18;100886.25;5026120;28;20073;-76
2022/12/04 02:59:37;;;;;;;3.30;1.40;;;;;;;4.56;47.90;100879.38;5025678;28;20049;-77
2022/12/04 03:02:10;;;;;;;2.50;1.27;;;;;;;4.55;48.58;100888.72;5021786;28;20054;-76
2022/12/04 03:04:41;;;;;;;2.15;1.27;;;;;;;4.56;50.43;100890.50;5025740;28;20041;-73
2022/12/04 03:07:15;;;;;;;1.60;1.33;;;;;;;4.57;48.25;100902.50;5019828;28;20747;-74
2022/12/04 03:09:48;;;;;;;2.75;1.35;;;;;;;4.58;47.85;100890.56;5020696;28;20073;-75
2022/12/04 03:12:17;;;;;;;;;;;;;;;4.57;48.20;100893.94;5024360;28;20049;-74
2022/12/04 03:14:53;;;;;;;2.30;1.33;;;;;;;4.58;47.56;100877.75;5022350;28;20518;-75
2022/12/04 03:17:30;;;;;;;1.98;1.05;;;;;;;4.58;47.25;100882.88;5018329;28;20080;-74
2022/12/04 03:20:05;;;;;;;2.00;1.10;;;;;;;4.57;48.06;100886.25;5027620;28;20140;-75
2022/12/04 03:22:37;;;;;;;1.08;0.73;;;;;;;4.57;48.02;100888.81;5025784;28;20064;-74
2022/12/04 03:25:08;;;;;;;1.15;1.00;;;;;;;4.56;48.03;100880.25;5018915;28;20071;-75
2022/12/04 03:27:43;;;;;;;2.22;1.20;;;;;;;4.56;48.83;100887.06;5020508;28;20550;-76
2022/12/04 03:30:17;;;;;;;3.78;1.20;;;;;;;4.53;48.78;100895.44;5013542;28;20115;-75
2022/12/04 03:32:50;;;;;;;2.05;1.17;;;;;;;4.53;48.43;100884.28;5014952;28;20049;-76
2022/12/04 03:35:22;;;;;;;;;;;;;;;4.51;47.47;100884.22;5017298;28;20045;-78
2022/12/04 03:37:58;;;;;;;3.97;1.10;;;;;;;4.52;48.35;100890.22;5022616;28;19929;-78
2022/12/04 03:40:34;;;;;;;2.38;1.25;;;;;;;4.51;48.08;100885.88;5016825;28;20168;-76
2022/12/04 03:43:08;;;;;;;2.55;1.33;;;;;;;4.50;48.02;100885.00;5014424;28;20057;-77
2022/12/04 03:45:46;;;;;;;4.05;1.33;;;;;;;4.49;48.59;100890.03;5024586;28;20136;-79
2022/12/04 03:48:22;;;;;;;1.65;1.00;;;;;;;4.47;48.21;100889.09;5021286;28;20099;-75
2022/12/04 03:50:58;;;;;;;3.88;1.25;;;;;;;4.46;48.41;100879.63;5020767;28;20166;-77
2022/12/04 03:53:34;;;;;;;2.03;1.13;;;;;;;4.45;48.58;100878.75;5026330;28;20473;-76
2022/12/04 03:56:09;;;;;;;2.03;1.48;;;;;;;4.32;47.67;100860.94;5019249;28;20061;-76
2022/12/04 03:58:43;;;;;;;1.23;1.00;;;;;;;4.43;47.75;100874.34;5025441;28;20439;-75
2022/12/04 04:01:15;;;;;;;2.83;1.35;;;;;;;4.43;47.96;100882.03;5013165;28;20057;-76
2022/12/04 04:03:47;;;;;;;;;;;;;;;4.42;48.70;100873.44;5016262;28;20104;-76
2022/12/04 04:06:20;;;;;;;1.40;0.98;;;;;;;4.41;48.17;100880.25;5017017;28;20354;-77
2022/12/04 04:08:53;;;;;;;3.55;1.60;;;;;;;4.38;47.74;100874.97;5023067;28;20765;-77
2022/12/04 04:11:28;;;;;;;1.58;1.08;;;;;;;4.39;48.01;100871.59;5012951;28;20419;-73
2022/12/04 04:25:17;;;;;;;2.58;1.50;;;;;;;4.37;47.32;100862.94;5025323;28;20144;-74
2022/12/04 04:27:53;;;;;;;6.30;1.58;;;;;;;4.37;48.18;100873.19;5025450;28;20084;-76
2022/12/04 04:30:22;;;;;;;3.85;1.52;;;;;;;4.36;47.46;100866.31;5023323;28;20041;-76
2022/12/04 04:32:59;;;;;;;4.03;1.80;;;;;;;4.34;47.04;100875.59;5017820;28;20080;-76
2022/12/04 04:35:35;;;;;;;4.55;1.77;;;;;;;4.35;46.48;100869.69;5022080;28;20049;-74
2022/12/04 04:38:13;;;;;;;4.28;1.83;;;;;;;4.34;47.13;100867.03;5024779;28;20041;-74
2022/12/04 04:40:51;;;;;;;6.55;1.83;;;;;;;4.32;48.25;100864.38;5024711;28;20053;-77
2022/12/04 04:43:26;;;;;;;4.18;1.80;;;;;;;4.31;48.30;100860.06;5026580;28;20499;-75
2022/12/04 04:46:06;;;;;;;1.63;1.13;;;;;;;4.29;48.34;100859.09;5030886;28;20049;-73
2022/12/04 04:48:40;;;;;;;2.38;1.38;;;;;;;4.29;48.38;100848.84;5031321;28;20049;-74
2022/12/04 04:51:10;;;;;;;3.10;1.73;;;;;;;4.30;47.95;100842.91;5028762;28;21111;-74
2022/12/04 04:53:44;;;;;;;2.45;1.27;;;;;;;4.29;48.26;100859.09;5020557;28;20060;-73
2022/12/04 04:56:14;;;;;;;1.83;0.98;;;;;;;4.29;47.70;100838.59;5015468;28;20049;-74
2022/12/04 04:58:43;;;;;;;1.52;0.93;;;;;;;4.29;48.76;100837.72;5008022;28;20048;-74
2022/12/04 05:01:14;;;;;;;2.20;1.27;;;;;;;4.31;48.86;100838.69;5012089;28;20938;-74
2022/12/04 05:03:45;;;;;;;3.10;1.42;;;;;;;4.28;48.19;100834.25;5009062;28;20060;-74
2022/12/04 05:06:14;;;;;;;1.23;0.60;;;;;;;4.26;49.18;100838.44;5013521;28;20061;-75
2022/12/04 05:08:50;;;;;;;1.40;0.90;;;;;;;4.27;48.28;100840.19;5011502;28;20073;-73
2022/12/04 05:11:19;;;;;;;2.45;1.17;;;;;;;4.27;49.73;100849.56;5011116;28;20659;-78
2022/12/04 05:13:48;;;;;;;2.60;1.10;;;;;;;4.28;48.67;100838.50;5005641;28;20105;-73
2022/12/04 05:16:17;;;;;;;2.08;1.27;;;;;;;4.29;49.05;100835.16;5011954;28;20411;-76
2022/12/04 05:21:29;;;;;;;2.28;1.08;;;;;;;4.28;48.41;100825.69;5004835;28;20052;-75
2022/12/04 05:23:58;;;;;;;3.92;0.90;;;;;;;4.28;48.24;100839.38;5008984;28;20133;-74
2022/12/04 05:26:27;;;;;;;4.10;1.05;;;;;;;4.30;48.46;100830.09;5004597;28;20045;-76
2022/12/04 05:28:55;;;;;;;1.73;0.90;;;;;;;4.30;47.27;100818.97;5013665;28;20152;-73
2022/12/04 05:31:24;;;;;;;3.17;1.08;;;;;;;4.32;48.23;100825.06;5003396;28;20160;-76
2022/12/04 05:33:54;;;;;;;2.20;1.15;;;;;;;4.34;46.93;100823.47;5011636;28;20129;-74
2022/12/04 05:36:23;;;;;;;3.78;1.02;;;;;;;4.35;47.68;100827.78;5010543;28;20045;-75
2022/12/04 05:38:51;;;;;;;2.53;1.08;;;;;;;4.34;47.77;100798.72;5007891;28;20521;-74
2022/12/04 05:41:20;;;;;;;3.17;1.00;;;;;;;4.36;47.43;100804.81;5007217;28;20041;-75
2022/12/04 05:43:49;;;;;;;4.00;0.98;;;;;;;4.37;46.88;100809.13;5013251;28;20050;-77
2022/12/04 05:46:18;;;;;;;1.33;0.95;;;;;;;4.37;47.59;100796.31;5005096;28;20052;-75
2022/12/04 05:48:46;;;;;;;2.35;0.90;;;;;;;4.38;47.83;100798.13;5008291;28;20129;-76
2022/12/04 05:51:17;;;;;;;1.50;1.02;;;;;;;4.37;47.35;100793.75;5012657;28;20818;-75
2022/12/04 05:53:45;;;;;;;2.13;1.00;;;;;;;4.27;48.20;100780.41;5010577;28;20054;-74
2022/12/04 05:56:14;;;;;;;4.00;1.05;;;;;;;4.38;47.61;100787.00;5023634;28;20053;-76
2022/12/04 05:58:43;;;;;;;1.00;0.57;;;;;;;4.36;48.36;100792.00;5022418;28;20050;-77
2022/12/04 06:01:13;;;;;;;1.73;0.82;;;;;;;4.35;48.12;100777.47;5022991;28;20053;-75
2022/12/04 06:03:42;;;;;;;2.67;1.10;;;;;;;4.37;48.49;100783.53;5033877;28;20140;-76
2022/12/04 06:06:16;;;;;;;1.80;1.30;;;;;;;4.38;46.94;100793.00;5024710;28;20060;-75
2022/12/04 06:08:45;;;;;;;2.83;1.08;;;;;;;4.41;47.98;100777.78;5025203;28;20509;-74
2022/12/04 06:11:14;;;;;;;1.75;0.98;;;;;;;4.41;47.76;100775.22;5024789;28;20081;-75
2022/12/04 06:13:45;;;;;;;2.00;0.90;;;;;;;4.43;47.81;100774.44;5025501;28;20045;-77
2022/12/04 06:16:15;;;;;;;0.75;0.60;;;;;;;4.39;47.63;100774.25;5030964;28;20506;-73
2022/12/04 06:18:44;;;;;;;2.38;0.80;;;;;;;4.40;47.89;100778.59;5028291;28;20434;-77
2022/12/04 06:21:13;;;;;;;1.20;0.90;;;;;;;4.43;47.97;100770.19;5020913;28;20507;-75
2022/12/04 06:23:43;;;;;;;0.85;0.40;;;;;;;4.45;47.40;100768.59;5023621;28;20429;-74
2022/12/04 06:26:11;;;;;;;6.32;1.27;;;;;;;4.48;47.34;100765.31;5017265;28;20594;-74
2022/12/04 06:28:40;;;;;;;1.98;0.90;;;;;;;4.51;46.96;100760.34;5030115;28;20049;-74
2022/12/04 06:31:11;;;;;;;1.80;1.10;;;;;;;4.52;46.56;100757.88;5026982;28;20045;-77
2022/12/04 06:33:41;;;;;;;1.13;1.02;;;;;;;4.52;47.41;100744.19;5026888;28;20096;-76
2022/12/04 06:36:12;;;;;;;1.20;0.70;;;;;;;4.52;46.92;100750.19;5030025;28;20360;-75
2022/12/04 06:38:43;;;;;;;1.13;0.73;;;;;;;4.56;47.05;100746.13;5029938;28;20048;-74
2022/12/04 06:41:15;;;;;;;1.38;0.95;;;;;;;4.57;46.84;100748.72;5025147;28;20483;-75
2022/12/04 06:43:44;;;;;;;2.67;0.73;;;;;;;4.58;46.30;100734.22;5015849;28;20041;-73
2022/12/04 06:46:14;;;;;;;0.98;0.85;;;;;;;4.57;46.25;100746.16;5027889;28;20511;-74
2022/12/04 06:48:44;;;;;;;1.17;0.90;;;;;;;4.59;46.41;100746.25;5028159;28;21310;-73
2022/12/04 06:51:14;;;;;;;1.83;0.88;;;;;;;4.58;46.35;100744.47;5017675;28;20042;-76
2022/12/04 06:53:44;;;;;;;1.27;0.80;;;;;;;4.59;46.14;100733.44;5020733;28;20226;-75
2022/12/04 06:56:16;;;;;;;1.42;0.85;;;;;;;4.62;46.58;100733.59;5026197;28;20050;-73
2022/12/04 06:58:46;;;;;;;0.70;0.53;;;;;;;4.61;46.24;100725.03;5025529;28;20125;-73
2022/12/04 07:01:16;;;;;;;1.95;0.88;;;;;;;4.62;46.43;100718.22;5025028;28;20107;-74
2022/12/04 07:03:45;;;;;;;2.25;0.90;;;;;;;4.61;45.90;100724.16;5020164;28;20105;-75
2022/12/04 07:06:16;;;;;;;1.20;0.70;;;;;;;4.64;46.26;100720.88;5025436;28;20056;-76
2022/12/04 07:08:48;;;;;;;1.77;1.05;;;;;;;4.62;45.56;100707.97;5025378;28;20559;-74
2022/12/04 07:11:17;;;;;;;1.43;0.80;;;;;;;4.61;46.65;100719.91;5025562;28;20045;-74
2022/12/04 07:13:46;;;;;;;1.75;0.88;;;;;;;4.62;46.80;100718.22;5023338;28;20053;-77
2022/12/04 07:16:18;;;;;;;1.75;0.70;;;;;;;4.60;46.38;100714.69;5028505;28;20091;-75
2022/12/04 07:18:49;;;;;;;0.98;0.77;;;;;;;4.59;46.54;100716.38;5027382;28;20112;-75
2022/12/04 07:21:19;;;;;;;0.77;0.50;;;;;;;4.59;46.30;100721.50;5023783;28;20057;-74
2022/12/04 07:23:53;;;;;;;1.63;1.20;;;;;;;4.60;45.79;100717.25;5019749;28;20068;-77
2022/12/04 07:26:22;;;;;;;1.38;0.70;;;;;;;4.60;45.59;100717.25;5027375;28;20046;-73
2022/12/04 07:28:51;;;;;;;1.67;0.98;;;;;;;4.59;45.86;100713.81;5021989;28;20140;-74
2022/12/04 07:31:21;;;;;;;1.90;0.95;;;;;;;4.59;46.45;100713.81;5025180;28;20056;-77
2022/12/04 07:33:52;;;;;;;0.98;0.57;;;;;;;4.60;46.01;100714.69;5024506;28;20057;-73
2022/12/04 07:36:22;;;;;;;1.27;0.95;;;;;;;4.61;45.78;100713.91;5025819;28;20053;-74
2022/12/04 07:38:53;;;;;;;3.20;1.15;;;;;;;4.63;45.73;100722.56;5027295;28;20049;-75
2022/12/04 07:41:22;;;;;;;1.77;0.98;;;;;;;4.64;45.37;100716.63;5027544;28;20057;-75
2022/12/04 07:43:50;;;;;;;1.73;0.90;;;;;;;4.64;46.14;100720.88;5027139;28;20100;-76
2022/12/04 07:46:20;;;;;;;1.60;0.80;;;;;;;4.65;45.71;100720.06;5026557;28;20164;-75
2022/12/04 07:48:49;;;;;;;3.55;1.30;;;;;;;4.64;45.71;100711.50;5027056;28;20064;-76
2022/12/04 07:51:20;;;;;;;2.28;1.13;;;;;;;4.65;45.60;100703.03;5024545;28;20057;-74
2022/12/04 07:53:49;;;;;;;2.30;0.93;;;;;;;4.63;46.41;100702.06;5021548;28;20053;-75
2022/12/04 07:56:19;;;;;;;2.92;1.10;;;;;;;4.63;46.26;100712.31;5026541;28;20073;-74
2022/12/04 07:58:48;;;;;;;1.63;1.23;;;;;;;4.61;47.23;100719.03;5026423;28;20038;-77
2022/12/04 08:01:18;;;;;;;2.47;1.27;;;;;;;4.59;46.42;100716.38;5022925;28;20045;-75
2022/12/04 08:03:49;;;;;;;2.00;1.05;;;;;;;4.59;45.83;100711.25;5027035;28;20053;-73
2022/12/04 08:06:19;;;;;;;4.15;1.52;;;;;;;4.57;46.84;100712.84;5025295;28;20050;-74
2022/12/04 08:08:48;;;;;;;2.00;0.98;;;;;;;4.59;47.20;100705.25;5026948;28;20108;-73
2022/12/04 08:11:21;;;;;;;0.73;0.57;;;;;;;4.55;46.93;100704.19;5025786;28;20068;-75
2022/12/04 08:13:48;;;;;;;;;;;;;;;4.57;46.93;100706.88;5023217;28;20053;-74
2022/12/04 08:16:17;;;;;;;1.23;0.95;;;;;;;4.56;46.23;100694.88;5022701;28;19921;-75
2022/12/04 08:18:47;;;;;;;3.47;1.00;;;;;;;4.57;46.73;100688.91;5025533;28;20050;-76
2022/12/04 08:21:18;;;;;;;2.85;1.00;;;;;;;4.55;47.20;100695.66;5023836;28;20053;-74
2022/12/04 08:23:46;;;;;;;1.50;0.93;;;;;;;4.57;46.21;100688.91;5022898;28;20099;-74
2022/12/04 08:26:15;;;;;;;1.13;0.75;;;;;;;4.59;46.43;100671.94;5024561;28;20045;-73
2022/12/04 08:28:46;;;;;;;2.67;0.90;;;;;;;4.61;46.32;100660.97;5023875;28;20103;-75
2022/12/04 08:31:16;;;;;;;2.00;1.30;;;;;;;4.56;46.53;100651.31;5024626;28;20046;-76
2022/12/04 08:33:46;;;;;;;1.27;0.70;;;;;;;4.64;47.29;100678.19;5021848;28;20436;-74
2022/12/04 08:36:18;;;;;;;2.47;0.82;;;;;;;4.62;46.50;100688.34;5024186;28;20050;-75
2022/12/04 08:38:47;;;;;;;2.95;1.23;;;;;;;4.64;47.19;100696.13;5026012;28;20053;-75
2022/12/04 08:41:18;;;;;;;2.15;0.80;;;;;;;4.65;46.13;100700.47;5023088;28;20129;-75
2022/12/04 08:43:48;;;;;;;0.80;0.50;;;;;;;4.64;46.57;100683.31;5027338;28;20055;-74
2022/12/04 08:46:19;;;;;;;1.25;0.82;;;;;;;4.60;46.69;100694.19;5025847;28;20141;-77
2022/12/04 08:48:48;;;;;;;0.68;0.60;;;;;;;4.54;46.78;100660.59;5022937;28;20061;-75
2022/12/04 08:51:18;;;;;;;0.77;0.50;;;;;;;4.62;46.78;100678.09;5027087;28;20064;-75
2022/12/04 08:53:47;;;;;;;1.85;1.17;;;;;;;4.64;47.62;100687.56;5025465;28;20539;-72
2022/12/04 08:56:16;;;;;;;1.33;0.88;;;;;;;4.64;47.39;100683.31;5026182;28;20196;-72
2022/12/04 08:58:45;;;;;;;2.17;1.08;;;;;;;4.61;48.15;100688.28;5023861;28;20366;-72
2022/12/04 09:01:15;;;;;;;0.50;0.50;;;;;;;4.61;47.25;100678.03;5024083;28;20053;-72
2022/12/04 09:03:44;;;;;;;1.63;1.00;;;;;;;4.62;46.93;100675.53;5028523;28;20042;-73
2022/12/04 09:06:14;;;;;;;1.75;0.90;;;;;;;4.65;47.04;100684.19;5025823;28;20057;-73
2022/12/04 09:08:43;;;;;;;2.65;0.65;;;;;;;4.58;47.54;100675.28;5024450;28;20056;-73
2022/12/04 09:11:14;;;;;;;1.23;0.50;;;;;;;4.56;46.87;100659.88;5024990;28;20056;-73
2022/12/04 09:13:44;;;;;;;0.82;0.57;;;;;;;4.60;48.43;100671.13;5023451;28;20057;-75
2022/12/04 09:16:17;;;;;;;1.80;0.88;;;;;;;4.58;46.97;100663.38;5024252;28;20061;-73
2022/12/04 09:18:46;;;;;;;2.35;0.80;;;;;;;4.59;46.95;100664.25;5023271;28;20056;-72
2022/12/04 09:21:16;;;;;;;0.68;0.60;;;;;;;4.59;47.54;100659.13;5022028;28;20134;-75
2022/12/04 09:23:45;;;;;;;1.13;0.68;;;;;;;4.59;47.65;100648.88;5022199;28;20082;-75
2022/12/04 09:26:23;;;;;;;2.08;1.00;;;;;;;4.61;47.38;100652.41;5024813;28;20144;-74
2022/12/04 09:28:52;;;;;;;0.88;0.60;;;;;;;4.63;47.17;100648.25;5027293;28;20080;-74
2022/12/04 09:31:24;;;;;;;1.83;0.77;;;;;;;4.64;47.01;100641.44;5026473;28;20072;-72
2022/12/04 09:33:53;;;;;;;0.55;0.50;;;;;;;4.64;48.21;100652.56;5027247;28;20446;-73
2022/12/04 09:36:22;;;;;;;1.00;0.60;;;;;;;4.61;47.85;100653.28;5022913;28;20665;-72
2022/12/04 09:38:52;;;;;;;0.95;0.85;;;;;;;4.61;47.58;100649.84;5027445;28;20047;-72
2022/12/04 09:41:48;;;;;;;1.10;0.63;;;;;;;4.61;47.44;100652.41;5024384;28;20526;-72
2022/12/04 09:44:22;;;;;;;2.45;0.80;;;;;;;4.62;47.41;100649.03;5028936;28;20057;-73
2022/12/04 09:46:58;;;;;;;2.05;1.00;;;;;;;4.62;48.61;100655.03;5019151;28;20041;-72
2022/12/04 09:49:31;;;;;;;1.90;1.17;;;;;;;4.60;47.83;100651.53;5027342;28;20064;-72
2022/12/04 09:52:03;;;;;;;1.50;0.90;;;;;;;4.60;49.35;100660.88;5024163;28;20785;-73
2022/12/04 09:54:40;;;;;;;0.65;0.55;;;;;;;4.59;47.85;100656.56;5021947;28;20526;-74
2022/12/04 09:57:16;;;;;;;2.95;0.73;;;;;;;4.59;47.56;100651.44;5028609;28;20053;-73
2022/12/04 09:59:45;;;;;;;2.38;1.05;;;;;;;4.59;47.19;100648.88;5023727;28;20392;-74
2022/12/04 10:02:30;;;;;;;2.67;1.10;;;;;;;4.60;46.79;100648.06;5026076;28;20160;-72
2022/12/04 10:04:59;;;;;;;0.95;0.63;;;;;;;4.62;47.58;100644.78;5029385;28;20557;-74
2022/12/04 10:07:32;;;;;;;1.17;0.80;;;;;;;4.56;49.43;100652.19;5027297;28;20515;-75
2022/12/04 10:10:08;;;;;;;2.70;0.90;;;;;;;4.55;47.35;100652.09;5024296;28;20053;-74
2022/12/04 10:12:47;;;;;;;1.65;1.05;;;;;;;4.55;47.60;100652.09;5023709;28;20420;-74
2022/12/04 10:15:30;;;;;;;1.98;1.02;;;;;;;4.55;48.20;100662.34;5025252;28;20056;-74
2022/12/04 10:18:18;;;;;;;;;;;;;;;4.54;48.93;100655.47;5022391;28;20103;-74
2022/12/04 10:21:06;;;;;;;1.25;0.90;;;;;;;4.53;48.75;100648.56;5020725;28;20306;-73
2022/12/04 10:23:46;;;;;;;0.98;0.60;;;;;;;4.53;49.76;100646.00;5020686;28;20507;-75
2022/12/04 10:26:17;;;;;;;0.75;0.75;;;;;;;4.51;49.63;100645.94;5026314;28;20529;-75
2022/12/04 10:28:56;;;;;;;3.80;1.10;;;;;;;4.48;49.20;100647.44;5022498;28;20414;-73
2022/12/04 10:31:27;;;;;;;1.95;0.65;;;;;;;4.48;48.27;100657.69;5027549;28;20053;-74
2022/12/04 10:33:59;;;;;;;3.83;0.80;;;;;;;4.46;50.52;100644.78;5027598;28;20041;-75
2022/12/04 10:36:33;;;;;;;1.77;0.73;;;;;;;4.45;49.28;100642.16;5031041;28;20447;-77
2022/12/04 10:39:06;;;;;;;1.30;0.70;;;;;;;4.45;49.88;100645.59;5021289;28;20049;-75
2022/12/04 10:41:38;;;;;;;;;;;;;;;4.41;50.34;100647.13;5026943;28;20064;-75
2022/12/04 10:44:13;;;;;;;1.60;0.70;;;;;;;4.41;50.45;100652.25;5023011;28;19931;-76
2022/12/04 10:46:42;;;;;;;1.50;0.70;;;;;;;4.41;50.45;100654.81;5025185;28;20969;-73
2022/12/04 10:49:20;;;;;;;1.23;0.57;;;;;;;4.41;50.37;100659.94;5022897;28;20041;-74
2022/12/04 10:51:51;;;;;;;0.95;0.47;;;;;;;4.41;51.13;100665.03;5019699;28;20053;-73
2022/12/04 10:54:23;;;;;;;1.63;0.80;;;;;;;4.41;50.33;100659.94;5022907;28;20076;-76
2022/12/04 10:56:56;;;;;;;1.48;0.80;;;;;;;4.40;50.51;100652.19;5020733;28;20514;-74
2022/12/04 10:59:26;;;;;;;0.90;0.68;;;;;;;4.40;49.71;100647.06;5026088;28;20045;-74
2022/12/04 11:02:21;;;;;;;0.85;0.75;;;;;;;4.40;50.25;100642.81;5024680;28;20053;-74
2022/12/04 11:04:56;;;;;;;0.80;0.77;;;;;;;4.41;50.21;100636.88;5026134;28;20514;-74
2022/12/04 11:07:29;;;;;;;2.28;0.80;;;;;;;4.43;50.50;100630.97;5028431;28;20378;-73
2022/12/04 11:10:02;;;;;;;1.20;0.85;;;;;;;4.41;49.29;100629.19;5022781;28;20049;-73
2022/12/04 11:12:32;;;;;;;1.65;0.70;;;;;;;4.44;50.03;100625.03;5025423;28;20484;-74
2022/12/04 11:15:13;;;;;;;1.17;0.80;;;;;;;4.43;49.99;100619.03;5025119;28;20065;-75
2022/12/04 11:17:42;;;;;;;1.55;0.80;;;;;;;4.43;49.65;100618.16;5022202;28;20064;-74
2022/12/04 11:20:19;;;;;;;1.10;1.00;;;;;;;4.43;49.48;100611.34;5023664;28;20236;-73
2022/12/04 11:22:53;;;;;;;1.85;0.88;;;;;;;4.41;49.84;100603.56;5026053;28;20064;-73
2022/12/04 11:25:26;;;;;;;1.23;0.75;;;;;;;4.40;49.55;100604.38;5021837;28;20069;-73
2022/12/04 11:27:57;;;;;;;1.13;0.95;;;;;;;4.38;49.78;100607.66;5023379;28;20041;-74
2022/12/04 11:30:29;;;;;;;2.33;0.70;;;;;;;4.43;49.24;100606.22;5024299;28;20137;-73
2022/12/04 11:32:58;;;;;;;1.67;1.00;;;;;;;4.45;49.51;100608.88;5025186;28;20041;-75
2022/12/04 11:35:29;;;;;;;0.55;0.30;;;;;;;4.43;49.58;100608.78;5024631;28;20390;-74
2022/12/04 11:38:06;;;;;;;2.83;1.08;;;;;;;4.39;49.24;100602.59;5023651;28;20055;-73
2022/12/04 11:40:37;;;;;;;0.85;0.50;;;;;;;4.34;49.23;100598.94;5019853;28;20049;-72
2022/12/04 11:43:07;;;;;;;1.52;0.65;;;;;;;4.38;50.28;100608.53;5026667;28;20057;-72
2022/12/04 11:45:36;;;;;;;1.88;1.00;;;;;;;4.40;49.83;100606.94;5024893;28;20071;-72
2022/12/04 11:48:13;;;;;;;1.48;0.70;;;;;;;4.36;49.61;100594.78;5024482;28;20080;-74
2022/12/04 11:50:51;;;;;;;1.80;1.02;;;;;;;4.37;49.54;100600.75;5024226;28;20605;-72
2022/12/04 11:53:30;;;;;;;0.57;0.50;;;;;;;4.35;50.34;100598.16;5023622;28;20714;-72
2022/12/04 11:56:17;;;;;;;0.52;0.40;;;;;;;4.35;50.41;100592.13;5020153;28;20041;-73
2022/12/04 11:59:07;;;;;;;2.53;0.75;;;;;;;4.37;49.84;100588.84;5021236;28;20072;-72
2022/12/04 12:01:44;;;;;;;1.15;0.73;;;;;;;4.35;49.89;100590.47;5026630;28;20049;-73
2022/12/04 12:04:30;;;;;;;0.75;0.50;;;;;;;4.33;51.44;100583.47;5024328;28;20061;-71
2022/12/04 12:07:14;;;;;;;1.52;1.05;;;;;;;4.25;51.19;100580.53;5027446;28;20037;-75
2022/12/04 12:09:50;;;;;;;1.13;0.52;;;;;;;4.25;50.03;100590.75;5023375;28;20053;-75
2022/12/04 12:12:25;;;;;;;1.73;0.60;;;;;;;4.24;50.58;100590.69;5021969;28;20045;-73